sensor_id;sensor_type;location;lat;lon;timestamp;P1;durP1;ratioP1;P2;durP2;ratioP2
10260;SDS011;5175;42.606;23.388;2023-02-16T00:04:00;26.03;;;17.60;;
10260;SDS011;5175;42.606;23.388;2023-02-16T00:06:28;25.37;;;17.17;;
10260;SDS011;5175;42.606;23.388;2023-02-16T00:08:55;24.63;;;16.60;;
10260;SDS011;5175;42.606;23.388;2023-02-16T00:11:23;23.63;;;16.23;;
10260;SDS011;5175;42.606;23.388;2023-02-16T00:14:12;27.20;;;16.27;;
10260;SDS011;5175;42.606;23.388;2023-02-16T00:16:40;23.80;;;15.57;;
10260;SDS011;5175;42.606;23.388;2023-02-16T00:19:19;22.53;;;15.07;;
10260;SDS011;5175;42.606;23.388;2023-02-16T00:21:47;23.63;;;15.27;;
10260;SDS011;5175;42.606;23.388;2023-02-16T00:24:16;21.53;;;14.90;;
10260;SDS011;5175;42.606;23.388;2023-02-16T00:26:44;21.13;;;14.80;;
10260;SDS011;5175;42.606;23.388;2023-02-16T00:29:14;21.80;;;15.17;;
10260;SDS011;5175;42.606;23.388;2023-02-16T00:31:46;21.50;;;14.80;;
10260;SDS011;5175;42.606;23.388;2023-02-16T00:34:21;20.73;;;14.30;;
10260;SDS011;5175;42.606;23.388;2023-02-16T00:36:51;23.17;;;14.97;;
10260;SDS011;5175;42.606;23.388;2023-02-16T00:39:18;19.17;;;14.00;;
10260;SDS011;5175;42.606;23.388;2023-02-16T00:41:45;20.20;;;13.80;;
10260;SDS011;5175;42.606;23.388;2023-02-16T00:44:16;19.60;;;14.03;;
10260;SDS011;5175;42.606;23.388;2023-02-16T00:46:45;21.97;;;15.33;;
10260;SDS011;5175;42.606;23.388;2023-02-16T00:49:13;20.17;;;13.97;;
10260;SDS011;5175;42.606;23.388;2023-02-16T00:51:42;23.00;;;14.87;;
10260;SDS011;5175;42.606;23.388;2023-02-16T00:54:09;24.47;;;16.87;;
10260;SDS011;5175;42.606;23.388;2023-02-16T00:56:36;21.53;;;16.37;;
10260;SDS011;5175;42.606;23.388;2023-02-16T00:59:03;23.00;;;16.20;;
10260;SDS011;5175;42.606;23.388;2023-02-16T01:01:33;22.70;;;16.50;;
10260;SDS011;5175;42.606;23.388;2023-02-16T01:04:01;24.50;;;16.33;;
10260;SDS011;5175;42.606;23.388;2023-02-16T01:06:29;25.17;;;16.67;;
10260;SDS011;5175;42.606;23.388;2023-02-16T01:09:15;24.37;;;16.20;;
10260;SDS011;5175;42.606;23.388;2023-02-16T01:12:01;22.93;;;15.77;;
10260;SDS011;5175;42.606;23.388;2023-02-16T01:14:29;21.83;;;14.77;;
10260;SDS011;5175;42.606;23.388;2023-02-16T01:16:58;21.03;;;15.20;;
10260;SDS011;5175;42.606;23.388;2023-02-16T01:19:25;20.67;;;14.90;;
10260;SDS011;5175;42.606;23.388;2023-02-16T01:21:52;20.33;;;14.53;;
10260;SDS011;5175;42.606;23.388;2023-02-16T01:24:20;21.63;;;15.10;;
10260;SDS011;5175;42.606;23.388;2023-02-16T01:26:48;18.33;;;13.87;;
10260;SDS011;5175;42.606;23.388;2023-02-16T01:29:16;18.73;;;13.90;;
10260;SDS011;5175;42.606;23.388;2023-02-16T01:31:45;17.93;;;13.40;;
10260;SDS011;5175;42.606;23.388;2023-02-16T01:34:12;20.47;;;13.73;;
10260;SDS011;5175;42.606;23.388;2023-02-16T01:36:40;17.80;;;13.27;;
10260;SDS011;5175;42.606;23.388;2023-02-16T01:39:09;19.23;;;13.37;;
10260;SDS011;5175;42.606;23.388;2023-02-16T01:41:43;18.80;;;13.37;;
10260;SDS011;5175;42.606;23.388;2023-02-16T01:44:20;17.20;;;12.47;;
10260;SDS011;5175;42.606;23.388;2023-02-16T01:46:51;17.67;;;12.37;;
10260;SDS011;5175;42.606;23.388;2023-02-16T01:49:24;17.33;;;12.33;;
10260;SDS011;5175;42.606;23.388;2023-02-16T01:51:54;16.87;;;12.47;;
10260;SDS011;5175;42.606;23.388;2023-02-16T01:54:33;18.90;;;12.70;;
10260;SDS011;5175;42.606;23.388;2023-02-16T01:57:08;19.83;;;13.93;;
10260;SDS011;5175;42.606;23.388;2023-02-16T02:02:34;18.43;;;12.57;;
10260;SDS011;5175;42.606;23.388;2023-02-16T02:05:04;16.60;;;12.13;;
10260;SDS011;5175;42.606;23.388;2023-02-16T02:07:58;19.67;;;11.93;;
10260;SDS011;5175;42.606;23.388;2023-02-16T02:10:33;17.50;;;12.50;;
10260;SDS011;5175;42.606;23.388;2023-02-16T02:13:10;18.83;;;12.67;;
10260;SDS011;5175;42.606;23.388;2023-02-16T02:15:44;18.50;;;12.90;;
10260;SDS011;5175;42.606;23.388;2023-02-16T02:18:13;18.30;;;12.93;;
10260;SDS011;5175;42.606;23.388;2023-02-16T02:20:44;18.50;;;13.33;;
10260;SDS011;5175;42.606;23.388;2023-02-16T02:23:46;20.77;;;14.93;;
10260;SDS011;5175;42.606;23.388;2023-02-16T02:32:29;17.33;;;12.03;;
10260;SDS011;5175;42.606;23.388;2023-02-16T02:35:08;16.07;;;11.80;;
10260;SDS011;5175;42.606;23.388;2023-02-16T02:37:47;15.07;;;10.67;;
10260;SDS011;5175;42.606;23.388;2023-02-16T02:40:20;15.50;;;11.80;;
10260;SDS011;5175;42.606;23.388;2023-02-16T02:43:03;15.73;;;11.67;;
10260;SDS011;5175;42.606;23.388;2023-02-16T02:45:39;15.37;;;11.80;;
10260;SDS011;5175;42.606;23.388;2023-02-16T02:48:09;16.03;;;10.83;;
10260;SDS011;5175;42.606;23.388;2023-02-16T02:50:37;16.60;;;11.63;;
10260;SDS011;5175;42.606;23.388;2023-02-16T02:53:30;13.30;;;9.90;;
10260;SDS011;5175;42.606;23.388;2023-02-16T02:55:59;16.27;;;11.10;;
10260;SDS011;5175;42.606;23.388;2023-02-16T02:58:45;15.03;;;11.17;;
10260;SDS011;5175;42.606;23.388;2023-02-16T03:01:34;16.20;;;11.23;;
10260;SDS011;5175;42.606;23.388;2023-02-16T03:04:03;16.13;;;11.50;;
10260;SDS011;5175;42.606;23.388;2023-02-16T03:06:33;15.13;;;11.03;;
10260;SDS011;5175;42.606;23.388;2023-02-16T03:09:03;16.53;;;12.00;;
10260;SDS011;5175;42.606;23.388;2023-02-16T03:11:35;18.80;;;12.67;;
10260;SDS011;5175;42.606;23.388;2023-02-16T03:14:21;16.77;;;12.73;;
10260;SDS011;5175;42.606;23.388;2023-02-16T03:16:53;15.87;;;11.43;;
10260;SDS011;5175;42.606;23.388;2023-02-16T03:19:41;16.93;;;12.27;;
10260;SDS011;5175;42.606;23.388;2023-02-16T03:22:27;14.00;;;10.83;;
10260;SDS011;5175;42.606;23.388;2023-02-16T03:25:12;14.17;;;9.67;;
10260;SDS011;5175;42.606;23.388;2023-02-16T03:27:57;12.70;;;9.23;;
10260;SDS011;5175;42.606;23.388;2023-02-16T03:30:43;11.50;;;7.87;;
10260;SDS011;5175;42.606;23.388;2023-02-16T03:33:13;14.50;;;9.73;;
10260;SDS011;5175;42.606;23.388;2023-02-16T03:35:40;12.20;;;9.17;;
10260;SDS011;5175;42.606;23.388;2023-02-16T03:38:08;12.67;;;9.03;;
10260;SDS011;5175;42.606;23.388;2023-02-16T03:40:35;14.57;;;10.37;;
10260;SDS011;5175;42.606;23.388;2023-02-16T03:43:05;16.70;;;10.97;;
10260;SDS011;5175;42.606;23.388;2023-02-16T03:45:34;13.50;;;10.03;;
10260;SDS011;5175;42.606;23.388;2023-02-16T03:48:05;15.57;;;11.03;;
10260;SDS011;5175;42.606;23.388;2023-02-16T03:50:33;13.27;;;10.07;;
10260;SDS011;5175;42.606;23.388;2023-02-16T03:53:00;14.07;;;10.97;;
10260;SDS011;5175;42.606;23.388;2023-02-16T03:55:32;13.03;;;9.63;;
10260;SDS011;5175;42.606;23.388;2023-02-16T03:57:59;14.57;;;9.77;;
10260;SDS011;5175;42.606;23.388;2023-02-16T04:00:26;13.57;;;10.60;;
10260;SDS011;5175;42.606;23.388;2023-02-16T04:02:53;15.37;;;11.13;;
10260;SDS011;5175;42.606;23.388;2023-02-16T04:05:20;15.93;;;11.67;;
10260;SDS011;5175;42.606;23.388;2023-02-16T04:07:48;15.90;;;11.60;;
10260;SDS011;5175;42.606;23.388;2023-02-16T04:10:15;15.27;;;11.10;;
10260;SDS011;5175;42.606;23.388;2023-02-16T04:12:42;13.47;;;10.67;;
10260;SDS011;5175;42.606;23.388;2023-02-16T04:15:08;14.80;;;10.70;;
10260;SDS011;5175;42.606;23.388;2023-02-16T04:17:36;13.97;;;10.93;;
10260;SDS011;5175;42.606;23.388;2023-02-16T04:20:04;14.47;;;10.23;;
10260;SDS011;5175;42.606;23.388;2023-02-16T04:22:32;12.03;;;9.07;;
10260;SDS011;5175;42.606;23.388;2023-02-16T04:25:00;12.30;;;9.50;;
10260;SDS011;5175;42.606;23.388;2023-02-16T04:27:27;13.83;;;9.90;;
10260;SDS011;5175;42.606;23.388;2023-02-16T04:29:53;13.50;;;9.83;;
10260;SDS011;5175;42.606;23.388;2023-02-16T04:32:20;12.50;;;8.93;;
10260;SDS011;5175;42.606;23.388;2023-02-16T04:34:47;11.80;;;9.00;;
10260;SDS011;5175;42.606;23.388;2023-02-16T04:37:14;15.87;;;11.17;;
10260;SDS011;5175;42.606;23.388;2023-02-16T04:39:41;13.93;;;10.47;;
10260;SDS011;5175;42.606;23.388;2023-02-16T04:42:09;14.57;;;10.67;;
10260;SDS011;5175;42.606;23.388;2023-02-16T04:44:35;13.90;;;11.80;;
10260;SDS011;5175;42.606;23.388;2023-02-16T04:47:02;15.37;;;12.40;;
10260;SDS011;5175;42.606;23.388;2023-02-16T04:49:30;15.43;;;11.60;;
10260;SDS011;5175;42.606;23.388;2023-02-16T04:51:56;15.47;;;11.67;;
10260;SDS011;5175;42.606;23.388;2023-02-16T04:54:25;15.33;;;11.43;;
10260;SDS011;5175;42.606;23.388;2023-02-16T04:56:52;17.33;;;11.93;;
10260;SDS011;5175;42.606;23.388;2023-02-16T04:59:20;22.83;;;14.40;;
10260;SDS011;5175;42.606;23.388;2023-02-16T05:01:47;21.40;;;13.43;;
10260;SDS011;5175;42.606;23.388;2023-02-16T05:04:14;21.17;;;12.80;;
10260;SDS011;5175;42.606;23.388;2023-02-16T05:06:41;19.57;;;13.03;;
10260;SDS011;5175;42.606;23.388;2023-02-16T05:09:08;19.90;;;12.70;;
10260;SDS011;5175;42.606;23.388;2023-02-16T05:11:35;23.40;;;14.80;;
10260;SDS011;5175;42.606;23.388;2023-02-16T05:14:21;22.93;;;15.13;;
10260;SDS011;5175;42.606;23.388;2023-02-16T05:17:07;19.10;;;12.97;;
10260;SDS011;5175;42.606;23.388;2023-02-16T05:19:35;18.13;;;12.37;;
10260;SDS011;5175;42.606;23.388;2023-02-16T05:22:02;18.77;;;12.33;;
10260;SDS011;5175;42.606;23.388;2023-02-16T05:24:29;16.93;;;11.17;;
10260;SDS011;5175;42.606;23.388;2023-02-16T05:26:56;19.03;;;12.97;;
10260;SDS011;5175;42.606;23.388;2023-02-16T05:29:24;19.53;;;13.77;;
10260;SDS011;5175;42.606;23.388;2023-02-16T05:31:51;21.33;;;14.50;;
10260;SDS011;5175;42.606;23.388;2023-02-16T05:34:18;21.37;;;14.57;;
10260;SDS011;5175;42.606;23.388;2023-02-16T05:36:45;20.33;;;13.80;;
10260;SDS011;5175;42.606;23.388;2023-02-16T05:39:11;19.47;;;14.87;;
10260;SDS011;5175;42.606;23.388;2023-02-16T05:41:38;22.87;;;16.20;;
10260;SDS011;5175;42.606;23.388;2023-02-16T05:44:05;27.27;;;16.63;;
10260;SDS011;5175;42.606;23.388;2023-02-16T05:46:35;25.07;;;16.57;;
10260;SDS011;5175;42.606;23.388;2023-02-16T05:49:03;23.80;;;15.40;;
10260;SDS011;5175;42.606;23.388;2023-02-16T05:51:31;25.60;;;16.67;;
10260;SDS011;5175;42.606;23.388;2023-02-16T05:53:58;29.37;;;17.23;;
10260;SDS011;5175;42.606;23.388;2023-02-16T05:56:26;25.37;;;16.57;;
10260;SDS011;5175;42.606;23.388;2023-02-16T05:58:53;22.10;;;15.07;;
10260;SDS011;5175;42.606;23.388;2023-02-16T06:01:21;25.10;;;15.40;;
10260;SDS011;5175;42.606;23.388;2023-02-16T06:03:49;20.67;;;13.40;;
10260;SDS011;5175;42.606;23.388;2023-02-16T06:06:16;17.30;;;12.60;;
10260;SDS011;5175;42.606;23.388;2023-02-16T06:08:43;17.27;;;12.67;;
10260;SDS011;5175;42.606;23.388;2023-02-16T06:11:10;17.87;;;12.77;;
10260;SDS011;5175;42.606;23.388;2023-02-16T06:13:50;19.83;;;13.70;;
10260;SDS011;5175;42.606;23.388;2023-02-16T06:16:19;21.40;;;14.07;;
10260;SDS011;5175;42.606;23.388;2023-02-16T06:18:46;18.17;;;13.20;;
10260;SDS011;5175;42.606;23.388;2023-02-16T06:21:14;19.73;;;14.00;;
10260;SDS011;5175;42.606;23.388;2023-02-16T06:23:41;19.27;;;13.10;;
10260;SDS011;5175;42.606;23.388;2023-02-16T06:26:07;19.20;;;13.33;;
10260;SDS011;5175;42.606;23.388;2023-02-16T06:28:34;18.87;;;14.00;;
10260;SDS011;5175;42.606;23.388;2023-02-16T06:31:01;20.30;;;15.27;;
10260;SDS011;5175;42.606;23.388;2023-02-16T06:33:27;20.27;;;14.83;;
10260;SDS011;5175;42.606;23.388;2023-02-16T06:35:54;19.53;;;14.20;;
10260;SDS011;5175;42.606;23.388;2023-02-16T06:38:22;17.80;;;14.57;;
10260;SDS011;5175;42.606;23.388;2023-02-16T06:40:50;18.67;;;14.63;;
10260;SDS011;5175;42.606;23.388;2023-02-16T06:43:17;19.20;;;14.03;;
10260;SDS011;5175;42.606;23.388;2023-02-16T06:45:44;20.57;;;15.03;;
10260;SDS011;5175;42.606;23.388;2023-02-16T06:48:11;21.23;;;15.17;;
10260;SDS011;5175;42.606;23.388;2023-02-16T06:50:37;22.63;;;16.23;;
10260;SDS011;5175;42.606;23.388;2023-02-16T06:53:04;20.17;;;15.80;;
10260;SDS011;5175;42.606;23.388;2023-02-16T06:55:33;19.80;;;15.33;;
10260;SDS011;5175;42.606;23.388;2023-02-16T06:58:00;21.67;;;17.27;;
10260;SDS011;5175;42.606;23.388;2023-02-16T07:00:27;22.77;;;17.50;;
10260;SDS011;5175;42.606;23.388;2023-02-16T07:02:55;21.20;;;17.13;;
10260;SDS011;5175;42.606;23.388;2023-02-16T07:05:21;25.83;;;19.20;;
10260;SDS011;5175;42.606;23.388;2023-02-16T07:07:48;29.30;;;20.43;;
10260;SDS011;5175;42.606;23.388;2023-02-16T07:10:16;26.93;;;18.20;;
10260;SDS011;5175;42.606;23.388;2023-02-16T07:12:45;28.80;;;21.47;;
10260;SDS011;5175;42.606;23.388;2023-02-16T07:15:13;29.57;;;23.00;;
10260;SDS011;5175;42.606;23.388;2023-02-16T07:17:39;31.80;;;23.10;;
10260;SDS011;5175;42.606;23.388;2023-02-16T07:20:06;30.50;;;23.40;;
10260;SDS011;5175;42.606;23.388;2023-02-16T07:22:36;35.47;;;23.97;;
10260;SDS011;5175;42.606;23.388;2023-02-16T07:25:03;30.20;;;23.43;;
10260;SDS011;5175;42.606;23.388;2023-02-16T07:27:30;29.57;;;21.67;;
10260;SDS011;5175;42.606;23.388;2023-02-16T07:29:58;27.13;;;22.10;;
10260;SDS011;5175;42.606;23.388;2023-02-16T07:32:26;26.40;;;20.43;;
10260;SDS011;5175;42.606;23.388;2023-02-16T07:34:54;26.30;;;19.27;;
10260;SDS011;5175;42.606;23.388;2023-02-16T07:37:21;25.17;;;18.20;;
10260;SDS011;5175;42.606;23.388;2023-02-16T07:39:48;27.40;;;20.23;;
10260;SDS011;5175;42.606;23.388;2023-02-16T07:42:15;26.43;;;20.83;;
10260;SDS011;5175;42.606;23.388;2023-02-16T07:44:41;25.30;;;18.90;;
10260;SDS011;5175;42.606;23.388;2023-02-16T07:47:09;26.23;;;20.73;;
10260;SDS011;5175;42.606;23.388;2023-02-16T07:49:37;25.90;;;20.17;;
10260;SDS011;5175;42.606;23.388;2023-02-16T07:52:04;32.33;;;25.27;;
10260;SDS011;5175;42.606;23.388;2023-02-16T07:54:31;35.53;;;27.10;;
10260;SDS011;5175;42.606;23.388;2023-02-16T07:56:58;38.90;;;29.60;;
10260;SDS011;5175;42.606;23.388;2023-02-16T07:59:25;37.90;;;30.23;;
10260;SDS011;5175;42.606;23.388;2023-02-16T08:01:51;39.93;;;29.43;;
10260;SDS011;5175;42.606;23.388;2023-02-16T08:04:20;40.13;;;29.77;;
10260;SDS011;5175;42.606;23.388;2023-02-16T08:06:46;36.77;;;27.97;;
10260;SDS011;5175;42.606;23.388;2023-02-16T08:09:13;36.37;;;27.37;;
10260;SDS011;5175;42.606;23.388;2023-02-16T08:11:40;37.67;;;26.80;;
10260;SDS011;5175;42.606;23.388;2023-02-16T08:14:07;41.73;;;31.47;;
10260;SDS011;5175;42.606;23.388;2023-02-16T08:16:34;44.60;;;31.47;;
10260;SDS011;5175;42.606;23.388;2023-02-16T08:19:01;44.03;;;32.13;;
10260;SDS011;5175;42.606;23.388;2023-02-16T08:21:31;46.87;;;34.03;;
10260;SDS011;5175;42.606;23.388;2023-02-16T08:23:59;43.97;;;33.00;;
10260;SDS011;5175;42.606;23.388;2023-02-16T08:26:28;46.30;;;35.07;;
10260;SDS011;5175;42.606;23.388;2023-02-16T08:29:01;47.40;;;34.10;;
10260;SDS011;5175;42.606;23.388;2023-02-16T08:31:28;82.33;;;58.00;;
10260;SDS011;5175;42.606;23.388;2023-02-16T08:33:57;42.00;;;30.13;;
10260;SDS011;5175;42.606;23.388;2023-02-16T08:36:25;40.90;;;28.63;;
10260;SDS011;5175;42.606;23.388;2023-02-16T08:38:55;38.53;;;29.17;;
10260;SDS011;5175;42.606;23.388;2023-02-16T08:41:22;42.10;;;31.33;;
10260;SDS011;5175;42.606;23.388;2023-02-16T08:43:51;44.93;;;33.53;;
10260;SDS011;5175;42.606;23.388;2023-02-16T08:46:17;45.47;;;35.13;;
10260;SDS011;5175;42.606;23.388;2023-02-16T08:48:44;46.40;;;34.53;;
10260;SDS011;5175;42.606;23.388;2023-02-16T08:51:12;42.97;;;33.63;;
10260;SDS011;5175;42.606;23.388;2023-02-16T08:53:40;43.50;;;34.33;;
10260;SDS011;5175;42.606;23.388;2023-02-16T08:56:08;48.97;;;37.37;;
10260;SDS011;5175;42.606;23.388;2023-02-16T08:58:35;51.43;;;36.60;;
10260;SDS011;5175;42.606;23.388;2023-02-16T09:01:03;51.00;;;37.93;;
10260;SDS011;5175;42.606;23.388;2023-02-16T09:03:32;44.60;;;35.87;;
10260;SDS011;5175;42.606;23.388;2023-02-16T09:06:00;45.43;;;34.77;;
10260;SDS011;5175;42.606;23.388;2023-02-16T09:08:28;45.40;;;33.97;;
10260;SDS011;5175;42.606;23.388;2023-02-16T09:10:59;45.70;;;35.00;;
10260;SDS011;5175;42.606;23.388;2023-02-16T09:13:28;47.80;;;35.73;;
10260;SDS011;5175;42.606;23.388;2023-02-16T09:16:00;49.73;;;36.43;;
10260;SDS011;5175;42.606;23.388;2023-02-16T09:18:28;44.17;;;35.13;;
10260;SDS011;5175;42.606;23.388;2023-02-16T09:20:57;37.90;;;30.43;;
10260;SDS011;5175;42.606;23.388;2023-02-16T09:23:28;38.90;;;29.97;;
10260;SDS011;5175;42.606;23.388;2023-02-16T09:25:57;31.30;;;23.50;;
10260;SDS011;5175;42.606;23.388;2023-02-16T09:28:25;35.07;;;26.93;;
10260;SDS011;5175;42.606;23.388;2023-02-16T09:30:54;36.83;;;28.43;;
10260;SDS011;5175;42.606;23.388;2023-02-16T09:33:20;37.60;;;29.47;;
10260;SDS011;5175;42.606;23.388;2023-02-16T09:35:47;39.17;;;30.87;;
10260;SDS011;5175;42.606;23.388;2023-02-16T09:38:14;37.17;;;27.77;;
10260;SDS011;5175;42.606;23.388;2023-02-16T09:40:41;36.43;;;28.37;;
10260;SDS011;5175;42.606;23.388;2023-02-16T09:43:12;33.10;;;27.27;;
10260;SDS011;5175;42.606;23.388;2023-02-16T09:45:49;29.07;;;23.93;;
10260;SDS011;5175;42.606;23.388;2023-02-16T09:48:22;32.27;;;26.20;;
10260;SDS011;5175;42.606;23.388;2023-02-16T09:50:54;30.23;;;24.27;;
10260;SDS011;5175;42.606;23.388;2023-02-16T09:53:27;29.97;;;25.10;;
10260;SDS011;5175;42.606;23.388;2023-02-16T09:56:03;31.73;;;25.17;;
10260;SDS011;5175;42.606;23.388;2023-02-16T09:58:41;33.47;;;25.83;;
10260;SDS011;5175;42.606;23.388;2023-02-16T10:01:15;34.50;;;25.20;;
10260;SDS011;5175;42.606;23.388;2023-02-16T10:03:51;32.03;;;26.23;;
10260;SDS011;5175;42.606;23.388;2023-02-16T10:06:26;31.40;;;26.27;;
10260;SDS011;5175;42.606;23.388;2023-02-16T10:09:02;34.43;;;26.73;;
10260;SDS011;5175;42.606;23.388;2023-02-16T10:11:33;35.57;;;26.37;;
10260;SDS011;5175;42.606;23.388;2023-02-16T10:14:06;31.80;;;25.50;;
10260;SDS011;5175;42.606;23.388;2023-02-16T10:16:40;34.97;;;25.73;;
10260;SDS011;5175;42.606;23.388;2023-02-16T10:19:14;31.97;;;25.77;;
10260;SDS011;5175;42.606;23.388;2023-02-16T10:21:47;30.80;;;25.43;;
10260;SDS011;5175;42.606;23.388;2023-02-16T10:24:18;33.47;;;27.77;;
10260;SDS011;5175;42.606;23.388;2023-02-16T10:26:46;38.70;;;30.23;;
10260;SDS011;5175;42.606;23.388;2023-02-16T10:29:17;40.30;;;29.47;;
10260;SDS011;5175;42.606;23.388;2023-02-16T10:31:48;33.97;;;28.43;;
10260;SDS011;5175;42.606;23.388;2023-02-16T10:34:29;36.33;;;28.23;;
10260;SDS011;5175;42.606;23.388;2023-02-16T10:37:10;35.70;;;28.37;;
10260;SDS011;5175;42.606;23.388;2023-02-16T10:39:45;35.37;;;29.13;;
10260;SDS011;5175;42.606;23.388;2023-02-16T10:42:16;36.47;;;28.70;;
10260;SDS011;5175;42.606;23.388;2023-02-16T10:44:50;35.83;;;28.70;;
10260;SDS011;5175;42.606;23.388;2023-02-16T10:47:27;38.27;;;29.77;;
10260;SDS011;5175;42.606;23.388;2023-02-16T10:50:00;35.40;;;29.17;;
10260;SDS011;5175;42.606;23.388;2023-02-16T10:52:27;35.07;;;28.83;;
10260;SDS011;5175;42.606;23.388;2023-02-16T10:54:59;36.17;;;29.17;;
10260;SDS011;5175;42.606;23.388;2023-02-16T10:57:27;32.00;;;27.90;;
10260;SDS011;5175;42.606;23.388;2023-02-16T10:59:57;32.53;;;27.83;;
10260;SDS011;5175;42.606;23.388;2023-02-16T11:02:27;32.00;;;27.47;;
10260;SDS011;5175;42.606;23.388;2023-02-16T11:05:02;34.27;;;27.23;;
10260;SDS011;5175;42.606;23.388;2023-02-16T11:07:50;33.67;;;26.20;;
10260;SDS011;5175;42.606;23.388;2023-02-16T11:10:19;31.77;;;27.10;;
10260;SDS011;5175;42.606;23.388;2023-02-16T11:12:52;34.33;;;27.97;;
10260;SDS011;5175;42.606;23.388;2023-02-16T11:15:22;32.60;;;26.50;;
10260;SDS011;5175;42.606;23.388;2023-02-16T11:17:52;32.37;;;26.80;;
10260;SDS011;5175;42.606;23.388;2023-02-16T11:20:27;34.30;;;27.47;;
10260;SDS011;5175;42.606;23.388;2023-02-16T11:23:11;32.20;;;26.00;;
10260;SDS011;5175;42.606;23.388;2023-02-16T11:25:40;36.37;;;26.90;;
10260;SDS011;5175;42.606;23.388;2023-02-16T11:28:07;33.97;;;28.17;;
10260;SDS011;5175;42.606;23.388;2023-02-16T11:30:36;35.27;;;27.57;;
10260;SDS011;5175;42.606;23.388;2023-02-16T11:33:17;33.43;;;28.23;;
10260;SDS011;5175;42.606;23.388;2023-02-16T11:35:48;32.47;;;27.40;;
10260;SDS011;5175;42.606;23.388;2023-02-16T11:38:23;30.97;;;25.60;;
10260;SDS011;5175;42.606;23.388;2023-02-16T11:40:52;32.07;;;25.83;;
10260;SDS011;5175;42.606;23.388;2023-02-16T11:43:20;31.40;;;26.07;;
10260;SDS011;5175;42.606;23.388;2023-02-16T11:45:55;31.03;;;25.73;;
10260;SDS011;5175;42.606;23.388;2023-02-16T11:48:25;29.60;;;25.17;;
10260;SDS011;5175;42.606;23.388;2023-02-16T11:50:56;30.27;;;25.27;;
10260;SDS011;5175;42.606;23.388;2023-02-16T11:53:25;32.00;;;26.13;;
10260;SDS011;5175;42.606;23.388;2023-02-16T11:56:08;32.47;;;26.23;;
10260;SDS011;5175;42.606;23.388;2023-02-16T12:01:50;31.90;;;25.73;;
10260;SDS011;5175;42.606;23.388;2023-02-16T12:04:41;32.00;;;25.87;;
10260;SDS011;5175;42.606;23.388;2023-02-16T12:07:24;28.97;;;24.30;;
10260;SDS011;5175;42.606;23.388;2023-02-16T12:10:00;29.17;;;23.87;;
10260;SDS011;5175;42.606;23.388;2023-02-16T12:12:35;29.60;;;24.77;;
10260;SDS011;5175;42.606;23.388;2023-02-16T12:15:13;30.70;;;24.10;;
10260;SDS011;5175;42.606;23.388;2023-02-16T12:17:55;28.77;;;24.00;;
10260;SDS011;5175;42.606;23.388;2023-02-16T12:20:40;27.23;;;23.60;;
10260;SDS011;5175;42.606;23.388;2023-02-16T12:23:17;30.87;;;24.60;;
10260;SDS011;5175;42.606;23.388;2023-02-16T12:25:57;28.37;;;23.70;;
10260;SDS011;5175;42.606;23.388;2023-02-16T12:28:36;29.07;;;23.80;;
10260;SDS011;5175;42.606;23.388;2023-02-16T12:31:09;31.57;;;24.97;;
10260;SDS011;5175;42.606;23.388;2023-02-16T12:33:47;26.37;;;22.77;;
10260;SDS011;5175;42.606;23.388;2023-02-16T12:36:26;27.30;;;23.57;;
10260;SDS011;5175;42.606;23.388;2023-02-16T12:39:04;29.73;;;23.77;;
10260;SDS011;5175;42.606;23.388;2023-02-16T12:41:44;28.93;;;24.03;;
10260;SDS011;5175;42.606;23.388;2023-02-16T12:44:19;30.60;;;24.10;;
10260;SDS011;5175;42.606;23.388;2023-02-16T12:46:55;28.63;;;23.17;;
10260;SDS011;5175;42.606;23.388;2023-02-16T12:49:29;28.37;;;23.77;;
10260;SDS011;5175;42.606;23.388;2023-02-16T12:52:02;27.33;;;24.00;;
10260;SDS011;5175;42.606;23.388;2023-02-16T12:54:35;29.73;;;23.53;;
10260;SDS011;5175;42.606;23.388;2023-02-16T12:57:09;27.37;;;23.20;;
10260;SDS011;5175;42.606;23.388;2023-02-16T12:59:40;29.13;;;22.70;;
10260;SDS011;5175;42.606;23.388;2023-02-16T13:02:12;26.67;;;20.90;;
10260;SDS011;5175;42.606;23.388;2023-02-16T13:04:44;29.77;;;21.90;;
10260;SDS011;5175;42.606;23.388;2023-02-16T13:07:18;26.73;;;22.93;;
10260;SDS011;5175;42.606;23.388;2023-02-16T13:09:55;28.83;;;22.13;;
10260;SDS011;5175;42.606;23.388;2023-02-16T13:12:28;26.13;;;21.47;;
10260;SDS011;5175;42.606;23.388;2023-02-16T13:15:05;26.50;;;22.70;;
10260;SDS011;5175;42.606;23.388;2023-02-16T13:17:38;25.27;;;21.23;;
10260;SDS011;5175;42.606;23.388;2023-02-16T13:20:12;25.83;;;20.77;;
10260;SDS011;5175;42.606;23.388;2023-02-16T13:22:56;26.60;;;20.87;;
10260;SDS011;5175;42.606;23.388;2023-02-16T13:26:17;24.40;;;19.80;;
10260;SDS011;5175;42.606;23.388;2023-02-16T13:35:07;23.80;;;20.03;;
10260;SDS011;5175;42.606;23.388;2023-02-16T13:37:49;24.53;;;20.63;;
10260;SDS011;5175;42.606;23.388;2023-02-16T13:40:35;26.57;;;21.00;;
10260;SDS011;5175;42.606;23.388;2023-02-16T13:43:24;27.20;;;21.00;;
10260;SDS011;5175;42.606;23.388;2023-02-16T13:45:56;25.67;;;20.83;;
10260;SDS011;5175;42.606;23.388;2023-02-16T13:48:25;26.07;;;21.90;;
10260;SDS011;5175;42.606;23.388;2023-02-16T13:50:56;25.50;;;22.13;;
10260;SDS011;5175;42.606;23.388;2023-02-16T13:53:25;25.67;;;21.43;;
10260;SDS011;5175;42.606;23.388;2023-02-16T13:56:17;26.07;;;20.37;;
10260;SDS011;5175;42.606;23.388;2023-02-16T13:58:49;31.33;;;21.13;;
10260;SDS011;5175;42.606;23.388;2023-02-16T14:01:34;24.57;;;20.33;;
10260;SDS011;5175;42.606;23.388;2023-02-16T14:04:10;26.80;;;21.40;;
10260;SDS011;5175;42.606;23.388;2023-02-16T14:06:39;24.43;;;21.17;;
10260;SDS011;5175;42.606;23.388;2023-02-16T14:12:14;24.83;;;21.17;;
10260;SDS011;5175;42.606;23.388;2023-02-16T14:14:52;22.75;;;19.65;;
10260;SDS011;5175;42.606;23.388;2023-02-16T14:17:23;27.73;;;21.37;;
10260;SDS011;5175;42.606;23.388;2023-02-16T14:19:53;26.00;;;21.40;;
10260;SDS011;5175;42.606;23.388;2023-02-16T14:22:23;26.08;;;22.17;;
10260;SDS011;5175;42.606;23.388;2023-02-16T14:24:59;25.83;;;21.70;;
10260;SDS011;5175;42.606;23.388;2023-02-16T14:27:42;25.83;;;21.70;;
10260;SDS011;5175;42.606;23.388;2023-02-16T14:32:58;24.70;;;19.77;;
10260;SDS011;5175;42.606;23.388;2023-02-16T14:35:31;28.40;;;21.98;;
10260;SDS011;5175;42.606;23.388;2023-02-16T14:38:00;23.08;;;19.58;;
10260;SDS011;5175;42.606;23.388;2023-02-16T14:40:39;23.45;;;20.50;;
10260;SDS011;5175;42.606;23.388;2023-02-16T14:46:00;22.50;;;19.52;;
10260;SDS011;5175;42.606;23.388;2023-02-16T14:55:03;29.45;;;24.08;;
10260;SDS011;5175;42.606;23.388;2023-02-16T14:57:50;25.02;;;21.95;;
10260;SDS011;5175;42.606;23.388;2023-02-16T15:00:23;27.92;;;20.85;;
10260;SDS011;5175;42.606;23.388;2023-02-16T15:02:58;22.73;;;19.80;;
10260;SDS011;5175;42.606;23.388;2023-02-16T15:05:27;27.33;;;22.67;;
10260;SDS011;5175;42.606;23.388;2023-02-16T15:08:00;31.13;;;24.35;;
10260;SDS011;5175;42.606;23.388;2023-02-16T15:10:33;35.23;;;31.40;;
10260;SDS011;5175;42.606;23.388;2023-02-16T15:13:01;38.10;;;32.10;;
10260;SDS011;5175;42.606;23.388;2023-02-16T15:15:33;53.13;;;40.93;;
10260;SDS011;5175;42.606;23.388;2023-02-16T15:18:12;46.07;;;39.90;;
10260;SDS011;5175;42.606;23.388;2023-02-16T15:20:42;46.97;;;39.00;;
10260;SDS011;5175;42.606;23.388;2023-02-16T15:23:16;41.40;;;35.07;;